createdAt,value
2022-09-28T00:00:14.864Z,99662.72
2022-09-28T00:03:16.192Z,99662.22
2022-09-28T00:06:20.966Z,99665.88
2022-09-28T00:09:22.352Z,99662.03
2022-09-28T00:12:23.684Z,99655.31
2022-09-28T00:15:25.242Z,99660.81
2022-09-28T00:18:26.646Z,99655.13
2022-09-28T00:21:30.488Z,99656.97
2022-09-28T00:24:31.870Z,99658.13
2022-09-28T00:27:33.259Z,99668.63
2022-09-28T00:30:34.649Z,99657.88
2022-09-28T00:33:35.964Z,99658.06
2022-09-28T00:36:37.369Z,99655.00
2022-09-28T00:39:39.538Z,99652.84
2022-09-28T00:42:40.917Z,99646.41
2022-09-28T00:45:43.451Z,99646.72
2022-09-28T00:49:02.838Z,99653.84
2022-09-28T00:52:06.583Z,99648.25
2022-09-28T00:55:16.972Z,99647.66
2022-09-28T00:58:23.834Z,99647.75
2022-09-28T01:01:26.884Z,99641.22
2022-09-28T01:04:30.857Z,99637.00
2022-09-28T01:07:34.344Z,99629.47
2022-09-28T01:10:35.993Z,99629.63
2022-09-28T01:13:39.809Z,99631.63
2022-09-28T01:16:41.232Z,99628.69
2022-09-28T01:20:46.718Z,99626.28
2022-09-28T01:24:13.922Z,99636.88
2022-09-28T01:27:20.922Z,99628.88
2022-09-28T01:30:22.966Z,99625.75
2022-09-28T01:33:28.835Z,99623.69
2022-09-28T01:36:38.540Z,99621.03
2022-09-28T01:39:45.423Z,99617.78
2022-09-28T01:42:53.311Z,99621.25
2022-09-28T01:46:13.177Z,99622.19
2022-09-28T01:49:43.863Z,99617.88
2022-09-28T01:52:58.307Z,99611.25
2022-09-28T01:56:11.704Z,99613.06
2022-09-28T01:59:25.984Z,99613.25
2022-09-28T02:02:34.188Z,99611.75
2022-09-28T02:05:39.209Z,99609.38
2022-09-28T02:08:49.180Z,99617.22
2022-09-28T02:11:58.896Z,99609.50
2022-09-28T02:15:27.172Z,99606.28
2022-09-28T02:18:28.874Z,99595.06
2022-09-28T02:22:11.741Z,99598.94
2022-09-28T02:25:24.401Z,99597.63
2022-09-28T02:28:26.326Z,99599.59
2022-09-28T02:31:28.188Z,99603.88
2022-09-28T02:34:29.658Z,99604.06
2022-09-28T02:37:31.109Z,99599.78
2022-09-28T02:40:36.301Z,99597.25
2022-09-28T02:43:52.706Z,99602.66
2022-09-28T02:47:03.778Z,99602.91
2022-09-28T02:50:10.498Z,99610.75
2022-09-28T02:53:14.802Z,99610.50
2022-09-28T02:56:26.835Z,99603.78
2022-09-28T02:59:48.826Z,99609.00
2022-09-28T03:03:03.999Z,99601.91
2022-09-28T03:06:14.855Z,99605.03
2022-09-28T03:09:25.012Z,99605.63
2022-09-28T03:12:27.287Z,99599.09
2022-09-28T03:15:31.013Z,99604.06
2022-09-28T03:18:32.372Z,99609.44
2022-09-28T03:21:33.720Z,99608.44
2022-09-28T03:24:35.095Z,99605.78
2022-09-28T03:27:36.958Z,99610.16
2022-09-28T03:30:38.387Z,99601.75
2022-09-28T03:33:40.123Z,99596.63
2022-09-28T03:36:41.539Z,99592.47
2022-09-28T03:39:43.323Z,99601.31
2022-09-28T03:42:44.685Z,99605.13
2022-09-28T03:45:57.014Z,99595.94
2022-09-28T03:48:59.014Z,99589.31
2022-09-28T03:52:00.892Z,99596.91
2022-09-28T03:55:02.380Z,99599.41
2022-09-28T03:58:03.747Z,99603.44
2022-09-28T04:01:09.257Z,99593.28
2022-09-28T04:04:14.121Z,99593.03
2022-09-28T04:07:15.588Z,99592.94
2022-09-28T04:10:17.681Z,99595.59
2022-09-28T04:13:19.089Z,99586.13
2022-09-28T04:16:20.935Z,99586.75
2022-09-28T04:19:33.376Z,99592.66
2022-09-28T04:22:54.986Z,99595.84
2022-09-28T04:25:56.499Z,99592.13
2022-09-28T04:28:59.145Z,99587.09
2022-09-28T04:32:03.156Z,99593.06
2022-09-28T04:35:12.029Z,99596.44
2022-09-28T04:38:13.378Z,99594.97
2022-09-28T04:41:15.703Z,99592.47
2022-09-28T04:44:17.220Z,99600.09
2022-09-28T04:47:20.426Z,99589.31
2022-09-28T04:50:30.518Z,99596.44
2022-09-28T04:53:48.183Z,99594.88
2022-09-28T05:05:46.974Z,99589.06
2022-09-28T05:09:04.051Z,99593.19
2022-09-28T05:12:05.456Z,99595.69
2022-09-28T05:15:07.085Z,99599.91
2022-09-28T05:18:08.834Z,99595.44
2022-09-28T05:21:22.486Z,99597.09
2022-09-28T05:24:24.220Z,99594.53
2022-09-28T05:27:26.803Z,99597.09
2022-09-28T05:30:39.341Z,99590.00
2022-09-28T05:33:58.536Z,99594.22
2022-09-28T05:37:00.489Z,99592.97
2022-09-28T05:40:02.491Z,99590.75
2022-09-28T05:43:04.061Z,99581.09
2022-09-28T05:46:06.834Z,99588.34
2022-09-28T05:49:11.091Z,99585.38
2022-09-28T05:52:12.436Z,99579.28
2022-09-28T05:55:14.154Z,99580.00
2022-09-28T05:58:16.907Z,99588.34
2022-09-28T06:01:18.394Z,99587.09
2022-09-28T06:04:20.518Z,99585.22
2022-09-28T06:07:23.000Z,99589.09
2022-09-28T06:10:28.480Z,99579.03
2022-09-28T06:13:33.873Z,99583.91
2022-09-28T06:16:36.636Z,99584.59
2022-09-28T06:19:41.014Z,99581.56
2022-09-28T06:22:58.415Z,99584.63
2022-09-28T06:25:59.830Z,99586.69
2022-09-28T06:29:01.279Z,99590.16
2022-09-28T06:32:02.721Z,99597.91
2022-09-28T06:35:04.418Z,99601.00
2022-09-28T06:38:05.931Z,99604.47
2022-09-28T06:41:08.839Z,99609.22
2022-09-28T06:44:10.231Z,99614.44
2022-09-28T06:47:30.043Z,99617.41
2022-09-28T06:50:51.329Z,99615.19
2022-09-28T06:54:14.502Z,99624.22
2022-09-28T06:57:24.799Z,99624.69
2022-09-28T07:00:27.832Z,99624.38
2022-09-28T07:03:29.870Z,99624.59
2022-09-28T07:06:54.162Z,99629.19
2022-09-28T07:10:25.936Z,99640.19
2022-09-28T07:13:50.905Z,99643.63
2022-09-28T07:17:10.985Z,99635.53
2022-09-28T07:20:19.060Z,99633.81
2022-09-28T07:23:21.729Z,99644.28
2022-09-28T07:26:49.031Z,99647.09
2022-09-28T07:30:14.809Z,99643.53
2022-09-28T07:33:50.054Z,99642.19
2022-09-28T07:36:58.862Z,99648.59
2022-09-28T07:40:00.674Z,99639.03
2022-09-28T07:43:05.978Z,99638.91
2022-09-28T07:46:09.024Z,99640.88
2022-09-28T07:49:12.368Z,99637.69
2022-09-28T07:52:32.441Z,99643.91
2022-09-28T07:55:41.190Z,99643.56
2022-09-28T07:59:00.925Z,99652.66
2022-09-28T08:02:31.320Z,99653.47
2022-09-28T08:05:32.727Z,99650.88
2022-09-28T08:08:34.774Z,99660.25
2022-09-28T08:11:36.398Z,99660.31
2022-09-28T08:14:57.763Z,99664.16
2022-09-28T08:18:17.891Z,99654.56
2022-09-28T08:21:22.113Z,99673.00
2022-09-28T08:24:23.512Z,99667.06
2022-09-28T08:27:25.155Z,99673.84
2022-09-28T08:30:26.690Z,99682.09
2022-09-28T08:33:40.192Z,99678.16
2022-09-28T08:36:59.916Z,99686.72
2022-09-28T08:40:25.340Z,99689.41
2022-09-28T08:44:00.216Z,99693.25
2022-09-28T08:47:24.584Z,99697.66
2022-09-28T08:50:51.380Z,99692.94
2022-09-28T08:54:08.110Z,99706.63
2022-09-28T08:57:33.212Z,99693.09
2022-09-28T09:00:52.133Z,99696.91
2022-09-28T09:03:54.765Z,99707.44
2022-09-28T09:07:36.117Z,99702.97
2022-09-28T09:10:51.996Z,99706.69
2022-09-28T09:14:28.249Z,99696.75
2022-09-28T09:17:40.465Z,99701.47
2022-09-28T09:20:57.996Z,99704.56
2022-09-28T09:24:26.985Z,99703.44
2022-09-28T09:27:40.683Z,99708.06
2022-09-28T09:31:04.222Z,99703.44
2022-09-28T09:34:27.155Z,99710.47
2022-09-28T09:38:25.257Z,99712.19
2022-09-28T09:42:18.494Z,99713.25
2022-09-28T09:46:16.912Z,99704.00
2022-09-28T09:49:59.034Z,99712.66
2022-09-28T09:53:06.946Z,99713.41
2022-09-28T09:56:16.699Z,99713.19
2022-09-28T09:59:37.680Z,99726.72
2022-09-28T10:02:48.408Z,99715.50
2022-09-28T10:06:09.171Z,99708.97
2022-09-28T10:09:20.403Z,99715.00
2022-09-28T10:12:23.437Z,99709.28
2022-09-28T10:15:31.046Z,99710.59
2022-09-28T10:18:47.683Z,99719.16
2022-09-28T10:22:14.624Z,99715.16
2022-09-28T10:25:17.311Z,99714.94
2022-09-28T10:28:29.500Z,99707.13
2022-09-28T10:31:38.473Z,99712.88
2022-09-28T10:34:48.835Z,99706.53
2022-09-28T10:37:59.321Z,99708.53
2022-09-28T10:41:23.680Z,99703.81
2022-09-28T10:44:34.232Z,99710.84
2022-09-28T10:47:44.687Z,99712.22
2022-09-28T10:50:59.781Z,99713.59
2022-09-28T10:54:02.609Z,99717.63
2022-09-28T10:57:28.124Z,99707.53
2022-09-28T11:00:42.907Z,99715.31
2022-09-28T11:03:56.372Z,99714.94
2022-09-28T11:06:57.857Z,99715.41
2022-09-28T11:10:01.738Z,99718.34
2022-09-28T11:13:09.062Z,99716.00
2022-09-28T11:16:21.117Z,99718.94
2022-09-28T11:19:22.622Z,99713.53
2022-09-28T11:22:38.519Z,99713.41
2022-09-28T11:25:42.211Z,99713.28
2022-09-28T11:28:51.386Z,99713.38
2022-09-28T11:32:04.775Z,99715.75
2022-09-28T11:35:56.138Z,99709.22
2022-09-28T11:39:00.494Z,99710.88
2022-09-28T11:42:52.987Z,99708.56
2022-09-28T11:46:08.310Z,99713.94
2022-09-28T11:49:27.198Z,99718.22
2022-09-28T11:52:32.267Z,99715.19
2022-09-28T11:55:40.964Z,99719.34
2022-09-28T11:58:57.300Z,99726.78
2022-09-28T12:02:22.194Z,99725.13
2022-09-28T12:05:34.800Z,99726.38
2022-09-28T12:08:51.349Z,99725.19
2022-09-28T12:12:22.578Z,99726.38
2022-09-28T12:15:38.183Z,99723.03
2022-09-28T12:19:02.151Z,99725.50
2022-09-28T12:22:13.555Z,99731.13
2022-09-28T12:25:20.904Z,99735.16
2022-09-28T12:28:38.211Z,99733.91
2022-09-28T12:31:56.564Z,99730.53
2022-09-28T12:34:58.196Z,99724.75
2022-09-28T12:38:29.709Z,99725.50
2022-09-28T12:41:59.578Z,99729.13
2022-09-28T12:45:23.442Z,99733.66
2022-09-28T12:48:42.797Z,99738.84
2022-09-28T12:51:50.209Z,99735.53
2022-09-28T12:55:19.371Z,99735.25
2022-09-28T12:58:45.574Z,99732.13
2022-09-28T13:02:05.445Z,99735.16
2022-09-28T13:05:41.030Z,99742.78
2022-09-28T13:08:45.126Z,99739.72
2022-09-28T13:11:49.341Z,99742.88
2022-09-28T13:15:02.263Z,99737.97
2022-09-28T13:18:26.237Z,99742.28
2022-09-28T13:21:37.558Z,99739.56
2022-09-28T13:24:41.080Z,99742.16
2022-09-28T13:27:47.978Z,99742.94
2022-09-28T13:30:51.188Z,99747.16
2022-09-28T13:33:53.479Z,99745.94
2022-09-28T13:37:16.603Z,99743.34
2022-09-28T13:40:18.047Z,99748.91
2022-09-28T13:43:31.503Z,99750.13
2022-09-28T13:46:35.626Z,99741.91
2022-09-28T13:49:55.939Z,99745.78
2022-09-28T13:53:09.435Z,99748.13
2022-09-28T13:56:19.587Z,99745.78
2022-09-28T13:59:29.939Z,99754.38
2022-09-28T14:02:52.835Z,99757.34
2022-09-28T14:06:00.019Z,99755.06
2022-09-28T14:09:13.610Z,99756.28
2022-09-28T14:12:53.920Z,99752.41
2022-09-28T14:16:18.284Z,99757.28
2022-09-28T14:19:31.455Z,99760.06
2022-09-28T14:22:37.470Z,99755.03
2022-09-28T14:25:45.073Z,99760.53
2022-09-28T14:28:52.389Z,99759.22
2022-09-28T14:31:55.757Z,99760.72
2022-09-28T14:35:00.937Z,99758.34
2022-09-28T14:38:14.850Z,99759.28
2022-09-28T14:41:16.127Z,99765.41
2022-09-28T14:44:17.481Z,99761.69
2022-09-28T14:47:33.932Z,99763.75
2022-09-28T14:50:35.309Z,99768.00
2022-09-28T14:53:38.646Z,99763.00
2022-09-28T14:56:44.706Z,99769.94
2022-09-28T14:59:46.651Z,99768.13
2022-09-28T15:02:51.186Z,99768.75
2022-09-28T15:05:52.723Z,99772.44
2022-09-28T15:08:54.227Z,99779.78
2022-09-28T15:12:02.770Z,99778.50
2022-09-28T15:15:07.649Z,99780.53
2022-09-28T15:18:48.123Z,99771.00
2022-09-28T15:21:50.370Z,99777.84
2022-09-28T15:25:01.393Z,99786.38
2022-09-28T15:28:18.023Z,99780.22
2022-09-28T15:31:22.277Z,99786.94
2022-09-28T15:34:26.762Z,99784.81
2022-09-28T15:37:33.155Z,99797.19
2022-09-28T15:40:38.562Z,99792.00
2022-09-28T15:43:40.063Z,99796.25
2022-09-28T15:46:48.033Z,99794.94
2022-09-28T15:49:59.335Z,99792.59
2022-09-28T15:53:04.382Z,99804.44
2022-09-28T15:56:06.456Z,99801.13
2022-09-28T15:59:07.751Z,99797.31
2022-09-28T16:02:12.447Z,99801.78
2022-09-28T16:05:31.531Z,99812.63
2022-09-28T16:08:35.972Z,99811.81
2022-09-28T16:11:39.348Z,99813.44
2022-09-28T16:14:40.644Z,99815.13
2022-09-28T16:17:42.084Z,99820.28
2022-09-28T16:20:46.100Z,99815.00
2022-09-28T16:23:52.938Z,99822.16
2022-09-28T16:27:03.132Z,99817.94
2022-09-28T16:30:16.937Z,99822.94
2022-09-28T16:33:30.345Z,99813.97
2022-09-28T16:36:43.487Z,99822.44
2022-09-28T16:39:44.821Z,99826.41
2022-09-28T16:42:49.045Z,99826.63
2022-09-28T16:45:50.777Z,99828.56
2022-09-28T16:48:52.145Z,99824.88
2022-09-28T16:51:54.063Z,99831.78
2022-09-28T16:54:55.401Z,99828.78
2022-09-28T16:57:56.886Z,99833.47
2022-09-28T17:00:59.201Z,99828.69
2022-09-28T17:04:00.697Z,99835.22
2022-09-28T17:07:02.068Z,99834.78
2022-09-28T17:10:14.780Z,99847.28
2022-09-28T17:13:16.122Z,99837.69
2022-09-28T17:16:42.653Z,99842.09
2022-09-28T17:19:43.815Z,99836.41
2022-09-28T17:22:45.176Z,99844.22
2022-09-28T17:25:47.574Z,99848.94
2022-09-28T17:28:48.929Z,99852.69
2022-09-28T17:31:50.259Z,99856.59
2022-09-28T17:35:00.900Z,99859.50
2022-09-28T17:38:02.555Z,99862.28
2022-09-28T17:41:04.055Z,99857.59
2022-09-28T17:44:05.433Z,99858.09
2022-09-28T17:47:06.788Z,99866.56
2022-09-28T17:50:20.183Z,99868.22
2022-09-28T17:53:21.528Z,99869.44
2022-09-28T17:56:29.712Z,99874.94
2022-09-28T17:59:33.188Z,99874.59
2022-09-28T18:02:34.591Z,99873.41
2022-09-28T18:05:37.250Z,99877.81
2022-09-28T18:08:38.758Z,99879.84
2022-09-28T18:11:43.166Z,99870.09
2022-09-28T18:14:44.489Z,99884.91
2022-09-28T18:17:45.855Z,99885.63
2022-09-28T18:20:47.243Z,99885.81
2022-09-28T18:23:48.578Z,99885.91
2022-09-28T18:26:49.893Z,99888.00
2022-09-28T18:29:51.221Z,99885.56
2022-09-28T18:32:52.670Z,99892.56
2022-09-28T18:35:55.395Z,99890.91
2022-09-28T18:38:56.714Z,99895.94
2022-09-28T18:41:58.074Z,99895.72
2022-09-28T18:44:59.393Z,99908.19
2022-09-28T18:48:00.821Z,99906.94
2022-09-28T18:51:03.151Z,99912.66
2022-09-28T18:54:04.519Z,99917.16
2022-09-28T18:57:05.850Z,99923.94
2022-09-28T19:00:11.364Z,99919.72
2022-09-28T19:03:12.829Z,99930.06
2022-09-28T19:06:15.794Z,99935.06
2022-09-28T19:09:19.787Z,99938.63
2022-09-28T19:12:21.240Z,99937.78
2022-09-28T19:15:22.920Z,99940.75
2022-09-28T19:18:24.243Z,99942.34
2022-09-28T19:21:25.763Z,99943.91
2022-09-28T19:24:27.452Z,99939.53
2022-09-28T19:27:28.779Z,99943.81
2022-09-28T19:30:30.100Z,99950.31
2022-09-28T19:33:32.134Z,99947.34
2022-09-28T19:36:33.463Z,99956.13
2022-09-28T19:39:34.799Z,99953.81
2022-09-28T19:42:36.177Z,99953.81
2022-09-28T19:45:37.508Z,99963.59
2022-09-28T19:48:38.865Z,99968.56
2022-09-28T19:52:01.665Z,99968.41
2022-09-28T19:55:03.227Z,99966.75
2022-09-28T19:58:04.544Z,99968.31
2022-09-28T20:01:06.813Z,99972.63
2022-09-28T20:04:08.493Z,99971.91
2022-09-28T20:07:09.833Z,99971.31
2022-09-28T20:10:11.275Z,99968.06
2022-09-28T20:13:13.733Z,99968.06
2022-09-28T20:16:17.629Z,99971.91
2022-09-28T20:19:19.103Z,99976.19
2022-09-28T20:22:20.468Z,99975.22
2022-09-28T20:25:21.808Z,99983.72
2022-09-28T20:28:23.194Z,99984.59
2022-09-28T20:31:25.139Z,99989.63
2022-09-28T20:34:26.687Z,99983.00
2022-09-28T20:37:28.010Z,99988.97
2022-09-28T20:40:29.388Z,99994.19
2022-09-28T20:43:30.839Z,99988.31
2022-09-28T20:46:32.371Z,99999.59
2022-09-28T20:49:33.815Z,99990.38
2022-09-28T20:52:35.273Z,100003.41
2022-09-28T20:55:36.606Z,100002.63
2022-09-28T20:58:39.310Z,100001.75
2022-09-28T21:01:40.853Z,100002.91
2022-09-28T21:04:42.210Z,99991.94
2022-09-28T21:07:43.535Z,99997.97
2022-09-28T21:10:44.855Z,99991.44
2022-09-28T21:13:47.329Z,99998.41
2022-09-28T21:16:48.668Z,100005.69
2022-09-28T21:19:50.013Z,100005.94
2022-09-28T21:22:51.339Z,100004.44
2022-09-28T21:26:10.332Z,100005.72
2022-09-28T21:29:14.215Z,100006.78
2022-09-28T21:32:15.528Z,100012.16
2022-09-28T21:35:16.865Z,100006.41
2022-09-28T21:38:18.190Z,100005.81
2022-09-28T21:41:19.516Z,100016.31
2022-09-28T21:44:21.016Z,100018.16
2022-09-28T21:47:22.507Z,100013.00
2022-09-28T21:50:25.873Z,100020.09
2022-09-28T21:53:28.365Z,100014.41
2022-09-28T21:56:29.721Z,100027.56
2022-09-28T21:59:31.041Z,100029.19
2022-09-28T22:02:32.424Z,100025.44
2022-09-28T22:05:33.747Z,100028.38
2022-09-28T22:08:36.385Z,100028.59
2022-09-28T22:11:37.739Z,100029.72
2022-09-28T22:14:39.071Z,100030.63
2022-09-28T22:17:40.462Z,100019.53
2022-09-28T22:20:41.808Z,100019.63
2022-09-28T22:23:43.222Z,100027.41
2022-09-28T22:26:44.558Z,100028.38
2022-09-28T22:29:45.897Z,100028.56
2022-09-28T22:32:47.222Z,100025.41
2022-09-28T22:35:48.694Z,100026.16
2022-09-28T22:38:50.204Z,100028.88
2022-09-28T22:41:51.915Z,100027.19
2022-09-28T22:44:53.238Z,100035.78
2022-09-28T22:47:54.569Z,100041.69
2022-09-28T22:50:55.980Z,100036.56
2022-09-28T22:53:57.946Z,100042.59
2022-09-28T22:56:59.295Z,100041.84
2022-09-28T23:00:00.843Z,100042.38
2022-09-28T23:03:02.238Z,100040.56
2022-09-28T23:06:03.775Z,100039.94
2022-09-28T23:09:05.199Z,100040.91
2022-09-28T23:12:06.552Z,100042.75
2022-09-28T23:15:08.670Z,100046.50
2022-09-28T23:18:10.234Z,100045.81
2022-09-28T23:21:14.307Z,100049.41
2022-09-28T23:24:15.687Z,100041.94
2022-09-28T23:27:17.040Z,100040.50
2022-09-28T23:30:19.580Z,100039.03
2022-09-28T23:33:21.332Z,100039.38
2022-09-28T23:36:22.660Z,100039.59
2022-09-28T23:39:24.037Z,100041.47
2022-09-28T23:42:25.393Z,100038.69
2022-09-28T23:45:26.757Z,100050.38
2022-09-28T23:48:28.118Z,100042.13
2022-09-28T23:51:29.458Z,100045.84
2022-09-28T23:54:30.829Z,100052.16
2022-09-28T23:57:32.185Z,100053.16
